sensor_id;sensor_type;location;lat;lon;timestamp;pressure;altitude;pressure_sealevel;temperature;humidity
50087;BME280;35967;50.718;7.050;2023-04-23T00:07:53;100041.72;;;14.10;91.83
50087;BME280;35967;50.718;7.050;2023-04-23T00:17:58;100045.81;;;14.14;92.15
50087;BME280;35967;50.718;7.050;2023-04-23T00:28:01;100030.72;;;14.24;91.36
50087;BME280;35967;50.718;7.050;2023-04-23T00:38:06;100036.13;;;14.19;91.19
50087;BME280;35967;50.718;7.050;2023-04-23T00:48:10;100028.22;;;14.40;89.50
50087;BME280;35967;50.718;7.050;2023-04-23T00:58:16;100012.25;;;14.13;90.79
50087;BME280;35967;50.718;7.050;2023-04-23T01:08:22;100005.13;;;14.35;89.69
50087;BME280;35967;50.718;7.050;2023-04-23T01:18:28;100009.63;;;14.32;89.09
50087;BME280;35967;50.718;7.050;2023-04-23T01:28:33;100009.47;;;14.17;88.82
50087;BME280;35967;50.718;7.050;2023-04-23T01:38:37;100005.69;;;14.06;88.68
50087;BME280;35967;50.718;7.050;2023-04-23T02:00:50;100014.75;;;13.97;88.89
50087;BME280;35967;50.718;7.050;2023-04-23T02:10:54;100012.09;;;13.79;90.71
50087;BME280;35967;50.718;7.050;2023-04-23T02:20:59;100005.16;;;13.61;92.50
50087;BME280;35967;50.718;7.050;2023-04-23T02:31:03;99996.41;;;13.82;90.34
50087;BME280;35967;50.718;7.050;2023-04-23T02:41:07;99992.81;;;13.67;89.97
50087;BME280;35967;50.718;7.050;2023-04-23T02:51:11;99981.66;;;13.27;91.47
50087;BME280;35967;50.718;7.050;2023-04-23T03:01:16;99983.38;;;13.26;90.63
50087;BME280;35967;50.718;7.050;2023-04-23T03:11:19;99988.81;;;13.41;90.17
50087;BME280;35967;50.718;7.050;2023-04-23T03:21:24;99974.72;;;13.28;90.00
50087;BME280;35967;50.718;7.050;2023-04-23T03:31:28;99981.16;;;12.98;90.87
50087;BME280;35967;50.718;7.050;2023-04-23T03:41:33;99968.69;;;12.87;91.18
50087;BME280;35967;50.718;7.050;2023-04-23T03:51:37;99961.34;;;12.99;91.40
50087;BME280;35967;50.718;7.050;2023-04-23T04:02:00;99959.97;;;12.90;92.23
50087;BME280;35967;50.718;7.050;2023-04-23T04:12:05;99952.88;;;12.95;91.86
50087;BME280;35967;50.718;7.050;2023-04-23T04:22:10;99948.53;;;12.96;91.94
50087;BME280;35967;50.718;7.050;2023-04-23T04:32:13;99941.56;;;12.98;92.16
50087;BME280;35967;50.718;7.050;2023-04-23T04:42:17;99948.81;;;12.89;92.61
50087;BME280;35967;50.718;7.050;2023-04-23T04:52:22;99960.19;;;12.85;91.69
50087;BME280;35967;50.718;7.050;2023-04-23T05:02:26;99975.00;;;13.21;91.08
50087;BME280;35967;50.718;7.050;2023-04-23T05:12:29;99969.19;;;13.16;90.77
50087;BME280;35967;50.718;7.050;2023-04-23T05:22:34;99972.22;;;13.26;90.64
50087;BME280;35967;50.718;7.050;2023-04-23T05:32:38;99981.06;;;13.20;90.72
50087;BME280;35967;50.718;7.050;2023-04-23T05:42:43;99960.59;;;13.35;91.15
50087;BME280;35967;50.718;7.050;2023-04-23T05:52:46;99963.78;;;13.41;90.75
50087;BME280;35967;50.718;7.050;2023-04-23T06:02:51;99965.13;;;13.50;90.92
50087;BME280;35967;50.718;7.050;2023-04-23T06:12:55;99969.13;;;13.57;89.55
50087;BME280;35967;50.718;7.050;2023-04-23T06:22:59;99961.69;;;13.69;88.61
50087;BME280;35967;50.718;7.050;2023-04-23T06:33:03;99972.25;;;13.64;88.20
50087;BME280;35967;50.718;7.050;2023-04-23T06:43:08;99970.78;;;13.59;86.82
50087;BME280;35967;50.718;7.050;2023-04-23T06:53:33;99959.31;;;13.64;85.70
50087;BME280;35967;50.718;7.050;2023-04-23T07:03:37;99944.16;;;13.56;85.38
50087;BME280;35967;50.718;7.050;2023-04-23T07:13:41;99946.19;;;13.69;83.95
50087;BME280;35967;50.718;7.050;2023-04-23T07:23:45;99941.69;;;14.09;83.36
50087;BME280;35967;50.718;7.050;2023-04-23T07:33:48;99918.56;;;14.59;81.26
50087;BME280;35967;50.718;7.050;2023-04-23T07:43:53;99920.91;;;15.14;80.06
50087;BME280;35967;50.718;7.050;2023-04-23T07:53:56;99919.22;;;15.77;76.61
50087;BME280;35967;50.718;7.050;2023-04-23T08:04:01;99919.81;;;15.67;73.57
50087;BME280;35967;50.718;7.050;2023-04-23T08:14:05;99913.63;;;15.69;71.56
50087;BME280;35967;50.718;7.050;2023-04-23T08:24:10;99916.78;;;15.74;71.92
50087;BME280;35967;50.718;7.050;2023-04-23T08:34:13;99909.59;;;15.80;70.79
50087;BME280;35967;50.718;7.050;2023-04-23T08:44:21;99897.41;;;16.12;71.71
50087;BME280;35967;50.718;7.050;2023-04-23T08:54:26;99902.03;;;16.07;68.03
50087;BME280;35967;50.718;7.050;2023-04-23T09:04:31;99893.50;;;16.35;64.47
50087;BME280;35967;50.718;7.050;2023-04-23T09:14:35;99892.44;;;16.97;63.42
50087;BME280;35967;50.718;7.050;2023-04-23T09:24:41;99869.56;;;16.74;60.26
50087;BME280;35967;50.718;7.050;2023-04-23T09:34:44;99856.53;;;17.31;58.98
50087;BME280;35967;50.718;7.050;2023-04-23T09:44:56;99858.63;;;16.97;57.67
50087;BME280;35967;50.718;7.050;2023-04-23T09:55:00;99857.13;;;17.08;57.99
50087;BME280;35967;50.718;7.050;2023-04-23T10:05:14;99839.69;;;17.64;55.71
50087;BME280;35967;50.718;7.050;2023-04-23T10:15:26;99831.38;;;17.45;57.24
50087;BME280;35967;50.718;7.050;2023-04-23T10:25:31;99830.56;;;17.17;54.87
50087;BME280;35967;50.718;7.050;2023-04-23T10:35:35;99830.75;;;17.41;53.98
50087;BME280;35967;50.718;7.050;2023-04-23T10:45:40;99823.88;;;17.13;54.78
50087;BME280;35967;50.718;7.050;2023-04-23T10:55:45;99818.09;;;17.22;51.14
50087;BME280;35967;50.718;7.050;2023-04-23T11:05:50;99805.84;;;17.24;52.14
50087;BME280;35967;50.718;7.050;2023-04-23T11:16:13;99797.56;;;17.45;50.04
50087;BME280;35967;50.718;7.050;2023-04-23T11:26:18;99790.66;;;17.31;50.46
50087;BME280;35967;50.718;7.050;2023-04-23T11:36:21;99777.47;;;17.87;50.76
50087;BME280;35967;50.718;7.050;2023-04-23T11:46:26;99761.66;;;17.90;48.49
50087;BME280;35967;50.718;7.050;2023-04-23T11:56:30;99746.00;;;18.42;46.87
50087;BME280;35967;50.718;7.050;2023-04-23T12:06:34;99713.56;;;19.32;44.23
50087;BME280;35967;50.718;7.050;2023-04-23T12:16:38;99698.31;;;19.50;42.95
50087;BME280;35967;50.718;7.050;2023-04-23T12:26:44;99669.00;;;19.46;42.89
50087;BME280;35967;50.718;7.050;2023-04-23T12:36:48;99664.34;;;19.97;41.15
50087;BME280;35967;50.718;7.050;2023-04-23T12:46:58;99653.22;;;19.48;40.92
50087;BME280;35967;50.718;7.050;2023-04-23T12:57:02;99639.91;;;19.28;41.36
50087;BME280;35967;50.718;7.050;2023-04-23T13:07:07;99622.22;;;19.20;42.54
50087;BME280;35967;50.718;7.050;2023-04-23T13:17:10;99611.31;;;18.91;46.97
50087;BME280;35967;50.718;7.050;2023-04-23T13:27:15;99608.84;;;18.41;42.92
50087;BME280;35967;50.718;7.050;2023-04-23T13:37:18;99600.13;;;18.05;48.63
50087;BME280;35967;50.718;7.050;2023-04-23T13:47:22;99586.94;;;17.69;53.80
50087;BME280;35967;50.718;7.050;2023-04-23T14:09:36;99528.13;;;17.66;49.69
50087;BME280;35967;50.718;7.050;2023-04-23T14:19:40;99500.13;;;17.57;49.71
50087;BME280;35967;50.718;7.050;2023-04-23T14:29:49;99484.94;;;17.51;50.71
50087;BME280;35967;50.718;7.050;2023-04-23T14:39:53;99465.56;;;17.68;50.33
50087;BME280;35967;50.718;7.050;2023-04-23T14:49:57;99444.63;;;17.70;49.89
50087;BME280;35967;50.718;7.050;2023-04-23T15:00:03;99429.44;;;17.63;50.20
50087;BME280;35967;50.718;7.050;2023-04-23T15:10:08;99414.28;;;17.57;51.01
50087;BME280;35967;50.718;7.050;2023-04-23T15:20:12;99418.69;;;17.68;50.61
50087;BME280;35967;50.718;7.050;2023-04-23T15:30:16;99414.16;;;17.59;51.56
50087;BME280;35967;50.718;7.050;2023-04-23T15:40:21;99407.31;;;17.45;58.34
50087;BME280;35967;50.718;7.050;2023-04-23T15:50:26;99416.94;;;17.31;62.69
50087;BME280;35967;50.718;7.050;2023-04-23T16:00:29;99457.75;;;16.79;63.92
50087;BME280;35967;50.718;7.050;2023-04-23T16:10:36;99505.69;;;15.51;74.25
50087;BME280;35967;50.718;7.050;2023-04-23T16:20:39;99486.50;;;15.10;76.05
50087;BME280;35967;50.718;7.050;2023-04-23T16:30:44;99458.19;;;14.93;79.08
50087;BME280;35967;50.718;7.050;2023-04-23T16:40:47;99407.38;;;15.05;81.22
50087;BME280;35967;50.718;7.050;2023-04-23T16:50:52;99386.66;;;15.05;79.51
50087;BME280;35967;50.718;7.050;2023-04-23T17:00:57;99361.06;;;15.27;79.69
50087;BME280;35967;50.718;7.050;2023-04-23T17:11:02;99336.13;;;14.97;78.32
50087;BME280;35967;50.718;7.050;2023-04-23T17:21:05;99331.38;;;15.04;78.14
50087;BME280;35967;50.718;7.050;2023-04-23T17:31:10;99336.56;;;15.04;76.98
50087;BME280;35967;50.718;7.050;2023-04-23T17:41:13;99334.91;;;15.03;75.09
50087;BME280;35967;50.718;7.050;2023-04-23T17:51:19;99322.78;;;15.04;75.53
50087;BME280;35967;50.718;7.050;2023-04-23T18:01:22;99321.16;;;14.88;74.94
50087;BME280;35967;50.718;7.050;2023-04-23T18:11:27;99323.25;;;14.96;75.15
50087;BME280;35967;50.718;7.050;2023-04-23T18:21:30;99318.06;;;14.96;74.89
50087;BME280;35967;50.718;7.050;2023-04-23T18:31:35;99312.72;;;14.99;74.14
50087;BME280;35967;50.718;7.050;2023-04-23T18:41:38;99317.25;;;14.95;73.79
50087;BME280;35967;50.718;7.050;2023-04-23T18:51:44;99344.19;;;14.93;76.76
50087;BME280;35967;50.718;7.050;2023-04-23T19:01:51;99356.63;;;14.43;84.14
50087;BME280;35967;50.718;7.050;2023-04-23T19:11:56;99360.72;;;14.47;83.46
50087;BME280;35967;50.718;7.050;2023-04-23T19:21:59;99368.38;;;14.48;82.45
50087;BME280;35967;50.718;7.050;2023-04-23T19:32:05;99361.09;;;14.55;81.53
50087;BME280;35967;50.718;7.050;2023-04-23T19:42:08;99386.38;;;14.35;79.97
50087;BME280;35967;50.718;7.050;2023-04-23T19:52:15;99415.78;;;14.34;76.10
50087;BME280;35967;50.718;7.050;2023-04-23T20:02:19;99422.44;;;14.24;72.23
50087;BME280;35967;50.718;7.050;2023-04-23T20:12:24;99444.94;;;14.08;70.90
50087;BME280;35967;50.718;7.050;2023-04-23T20:22:27;99459.19;;;13.99;70.94
50087;BME280;35967;50.718;7.050;2023-04-23T20:32:31;99468.66;;;13.84;70.75
50087;BME280;35967;50.718;7.050;2023-04-23T20:42:34;99463.22;;;13.88;69.44
50087;BME280;35967;50.718;7.050;2023-04-23T20:52:41;99463.97;;;13.75;69.11
50087;BME280;35967;50.718;7.050;2023-04-23T21:02:44;99451.97;;;13.73;68.69
50087;BME280;35967;50.718;7.050;2023-04-23T21:12:49;99466.81;;;13.54;69.03
50087;BME280;35967;50.718;7.050;2023-04-23T21:22:52;99458.25;;;13.36;69.61
50087;BME280;35967;50.718;7.050;2023-04-23T21:32:56;99455.22;;;13.28;69.61
50087;BME280;35967;50.718;7.050;2023-04-23T21:43:00;99442.75;;;13.36;69.38
50087;BME280;35967;50.718;7.050;2023-04-23T21:53:04;99446.19;;;13.36;69.39
50087;BME280;35967;50.718;7.050;2023-04-23T22:03:08;99435.31;;;13.30;69.32
50087;BME280;35967;50.718;7.050;2023-04-23T22:13:13;99430.41;;;13.25;69.44
50087;BME280;35967;50.718;7.050;2023-04-23T22:23:17;99426.63;;;13.15;69.84
50087;BME280;35967;50.718;7.050;2023-04-23T22:33:21;99435.03;;;13.18;69.17
50087;BME280;35967;50.718;7.050;2023-04-23T22:43:27;99430.06;;;13.15;69.45
50087;BME280;35967;50.718;7.050;2023-04-23T22:53:31;99422.50;;;13.28;68.95
50087;BME280;35967;50.718;7.050;2023-04-23T23:03:34;99422.72;;;13.23;69.90
50087;BME280;35967;50.718;7.050;2023-04-23T23:13:38;99411.69;;;13.04;74.19
50087;BME280;35967;50.718;7.050;2023-04-23T23:23:43;99401.03;;;13.10;75.13
50087;BME280;35967;50.718;7.050;2023-04-23T23:33:47;99406.53;;;13.04;74.24
50087;BME280;35967;50.718;7.050;2023-04-23T23:43:50;99404.78;;;13.04;73.62
50087;BME280;35967;50.718;7.050;2023-04-23T23:53:55;99394.78;;;13.14;73.90
